Mitchell, SD

5:40 AM CST on December 26, 2014 (GMT -0600)
APRSWXNET Mitchell SD US | Change Station
CLOSE
Current Station
Personal Weather Station
Location: Mitchell, SD
Elevation: 1309 ft
Nearby Weather Stations

Elev 1309 ft 43.73 °N, 98.04 °W | Updated 40 minutes ago

Overcast
Overcast
27 °F
Feels Like 27 °F
N
3
Wind Variable Wind from NE
Gusts 13.0 mph

Today
High -- | Low -- °F
--% Chance of Precip.
Yesterday
High -- | Low -- °F
Precip. -- in
8:04 AM 5:00 PM
Waxing Crescent, 25% visible
Pressure 30.02 in
Visibility 10.0 miles
Clouds Scattered Clouds 1300 ft
Mostly Cloudy 2100 ft
Overcast 2800 ft
Windchill 27 °F
Dew Point 24 °F
Humidity 88%
Rainfall 0.00 in
Snow Depth Not available.
UV 0 out of 12
Pollen .10 out of 12
Air Quality Not available.
Flu Activity Not available.
SPECI KMHE 261110Z AUTO 35012KT 10SM SCT013 BKN021 OVC028 M03/M04 A3002 RMK AO2 T10281044 $

More Conditions Fewer Conditions

Pressure 30.02 in
Visibility 10.0 miles
Clouds Scattered Clouds 1300 ft
Mostly Cloudy 2100 ft
Overcast 2800 ft
Windchill 27 °F
Dew Point 24 °F
Humidity 88%
Rainfall 0.00 in
Snow Depth Not available.
UV 0 out of 12
Pollen .10 out of 12
Air Quality Not available.
Flu Activity Not available.
SPECI KMHE 261110Z AUTO 35012KT 10SM SCT013 BKN021 OVC028 M03/M04 A3002 RMK AO2 T10281044 $

More Conditions Fewer Conditions

10-Day Weather Forecast

Almanac

Astronomy

Dec. 26, 2014 Rise Set
Actual Time
Civil Twilight
Nautical Twilight
Astronomical Twilight
Moon
Length of Visible Light
Length of Day
Tomorrow will be .
, % of the Moon is Illuminated

Today's Extremes

State Highs State Lows

Community

WunderPhotos

Upload Photos

1,780,580 photos uploaded!

WunderBlogs® & News

Nearby

Air Quality

  Air Quality AQ Index Pollutant
Not available.

Snow Depth

Station Depth Elevation

Earthquake Activity

City Distance Mag. Time & Date
Minimum magnitude displayed is 2.5.

Coastal Water Temperatures

Place Temperature

Nearby Weather Stations